createdAt,value
2023-05-04T00:01:36.596Z,27.44
2023-05-04T00:04:07.008Z,27.42
2023-05-04T00:06:37.452Z,27.40
2023-05-04T00:09:08.040Z,27.39
2023-05-04T00:11:38.126Z,27.38
2023-05-04T00:14:08.986Z,27.37
2023-05-04T00:16:41.467Z,27.34
2023-05-04T00:19:12.370Z,27.34
2023-05-04T00:21:42.844Z,27.33
2023-05-04T00:24:13.077Z,27.33
2023-05-04T00:26:43.327Z,27.32
2023-05-04T00:29:13.818Z,27.32
2023-05-04T00:31:46.529Z,27.32
2023-05-04T00:34:17.290Z,27.30
2023-05-04T00:36:48.112Z,27.29
2023-05-04T00:39:18.116Z,27.28
2023-05-04T00:41:49.178Z,27.25
2023-05-04T00:44:19.170Z,27.25
2023-05-04T00:46:52.204Z,27.24
2023-05-04T00:49:23.476Z,27.22
2023-05-04T00:51:57.439Z,27.21
2023-05-04T00:54:28.325Z,27.19
2023-05-04T00:56:59.452Z,27.18
2023-05-04T00:59:29.308Z,27.16
2023-05-04T01:02:01.239Z,27.14
2023-05-04T01:04:31.717Z,27.13
2023-05-04T01:07:16.871Z,27.10
2023-05-04T01:09:54.020Z,27.08
2023-05-04T01:12:38.320Z,27.07
2023-05-04T01:15:11.763Z,27.04
2023-05-04T01:17:44.165Z,27.03
2023-05-04T01:20:14.952Z,27.00
2023-05-04T01:22:47.773Z,26.98
2023-05-04T01:25:18.755Z,26.96
2023-05-04T01:27:58.479Z,26.93
2023-05-04T01:30:38.469Z,26.90
2023-05-04T01:33:10.262Z,26.89
2023-05-04T01:35:41.006Z,26.88
2023-05-04T01:38:13.582Z,26.86
2023-05-04T01:40:44.363Z,26.83
2023-05-04T01:43:14.591Z,26.81
2023-05-04T01:45:44.852Z,26.80
2023-05-04T01:48:15.173Z,26.77
2023-05-04T01:50:45.471Z,26.75
2023-05-04T01:53:18.071Z,26.74
2023-05-04T01:55:47.940Z,26.73
2023-05-04T01:58:18.779Z,26.70
2023-05-04T02:00:49.690Z,26.69
2023-05-04T02:03:19.555Z,26.67
2023-05-04T02:05:50.702Z,26.66
2023-05-04T02:08:22.788Z,26.66
2023-05-04T02:10:53.388Z,26.63
2023-05-04T02:13:24.328Z,26.62
2023-05-04T02:15:54.573Z,26.59
2023-05-04T02:18:24.947Z,26.57
2023-05-04T02:20:55.218Z,26.54
2023-05-04T02:23:28.088Z,26.53
2023-05-04T02:25:58.362Z,26.49
2023-05-04T02:28:28.979Z,26.46
2023-05-04T02:30:59.952Z,26.44
2023-05-04T02:33:29.940Z,26.40
2023-05-04T02:35:59.909Z,26.37
2023-05-04T02:38:31.825Z,26.34
2023-05-04T02:41:02.399Z,26.31
2023-05-04T02:43:33.136Z,26.30
2023-05-04T02:46:03.680Z,26.28
2023-05-04T02:48:34.235Z,26.27
2023-05-04T02:51:04.742Z,26.27
2023-05-04T02:53:36.969Z,26.28
2023-05-04T02:56:07.800Z,26.27
2023-05-04T02:58:37.840Z,26.28
2023-05-04T03:01:08.095Z,26.28
2023-05-04T03:03:38.591Z,26.30
2023-05-04T03:06:09.325Z,26.30
2023-05-04T03:08:41.284Z,26.31
2023-05-04T03:11:11.210Z,26.29
2023-05-04T03:13:41.737Z,26.29
2023-05-04T03:16:11.894Z,26.28
2023-05-04T03:18:42.573Z,26.29
2023-05-04T03:21:12.394Z,26.28
2023-05-04T03:23:45.683Z,26.30
2023-05-04T03:26:16.256Z,26.30
2023-05-04T03:28:47.000Z,26.31
2023-05-04T03:31:17.649Z,26.31
2023-05-04T03:33:47.836Z,26.32
2023-05-04T03:36:18.008Z,26.32
2023-05-04T03:38:49.640Z,26.34
2023-05-04T03:41:21.209Z,26.34
2023-05-04T03:43:51.967Z,26.34
2023-05-04T03:46:22.505Z,26.34
2023-05-04T03:48:53.052Z,26.34
2023-05-04T03:51:23.338Z,26.33
2023-05-04T03:53:54.661Z,26.34
2023-05-04T03:56:25.136Z,26.34
2023-05-04T03:58:55.301Z,26.35
2023-05-04T04:01:25.555Z,26.34
2023-05-04T04:03:55.306Z,26.35
2023-05-04T04:06:26.214Z,26.34
2023-05-04T04:08:59.312Z,26.34
2023-05-04T04:11:29.793Z,26.34
2023-05-04T04:14:00.199Z,26.34
2023-05-04T04:16:30.247Z,26.35
2023-05-04T04:19:02.191Z,26.36
2023-05-04T04:21:32.591Z,26.38
2023-05-04T04:24:05.447Z,26.40
2023-05-04T04:26:37.037Z,26.41
2023-05-04T04:29:08.103Z,26.44
2023-05-04T04:31:38.203Z,26.46
2023-05-04T04:34:08.860Z,26.49
2023-05-04T04:36:39.084Z,26.51
2023-05-04T04:39:11.612Z,26.54
2023-05-04T04:41:42.550Z,26.57
2023-05-04T04:44:13.061Z,26.61
2023-05-04T04:46:44.968Z,26.65
2023-05-04T04:49:18.160Z,26.69
2023-05-04T04:51:49.323Z,26.73
2023-05-04T04:54:21.244Z,26.78
2023-05-04T04:56:51.110Z,26.82
2023-05-04T04:59:25.013Z,26.86
2023-05-04T05:01:55.160Z,26.90
2023-05-04T05:04:25.642Z,26.95
2023-05-04T05:06:56.064Z,27.00
2023-05-04T05:09:28.210Z,27.04
2023-05-04T05:11:58.435Z,27.10
2023-05-04T05:14:28.451Z,27.15
2023-05-04T05:16:58.842Z,27.21
2023-05-04T05:19:29.448Z,27.26
2023-05-04T05:21:59.920Z,27.31
2023-05-04T05:24:32.408Z,27.37
2023-05-04T05:27:03.082Z,27.42
2023-05-04T05:29:33.265Z,27.49
2023-05-04T05:32:03.905Z,27.54
2023-05-04T05:34:33.981Z,27.61
2023-05-04T05:37:04.583Z,27.66
2023-05-04T05:39:37.595Z,27.72
2023-05-04T05:42:08.527Z,27.76
2023-05-04T05:44:39.127Z,27.82
2023-05-04T05:47:09.586Z,27.87
2023-05-04T05:49:39.714Z,27.92
2023-05-04T05:52:10.062Z,27.97
2023-05-04T05:54:43.208Z,28.01
2023-05-04T05:57:13.648Z,28.04
2023-05-04T05:59:45.247Z,28.09
2023-05-04T06:02:16.305Z,28.13
2023-05-04T06:04:47.465Z,28.19
2023-05-04T06:07:18.243Z,28.24
2023-05-04T06:09:51.037Z,28.29
2023-05-04T06:12:21.852Z,28.34
2023-05-04T06:14:52.446Z,28.40
2023-05-04T06:17:22.760Z,28.44
2023-05-04T06:19:53.071Z,28.50
2023-05-04T06:22:23.720Z,28.56
2023-05-04T06:25:01.569Z,28.61
2023-05-04T06:27:34.369Z,28.65
2023-05-04T06:30:04.902Z,28.71
2023-05-04T06:32:35.698Z,28.77
2023-05-04T06:35:06.794Z,28.82
2023-05-04T06:37:37.330Z,28.88
2023-05-04T06:40:11.914Z,28.93
2023-05-04T06:42:43.121Z,28.99
2023-05-04T06:45:14.663Z,29.05
2023-05-04T06:47:45.000Z,29.09
2023-05-04T06:50:16.872Z,29.15
2023-05-04T06:52:48.685Z,29.21
2023-05-04T06:55:21.512Z,29.26
2023-05-04T06:57:53.437Z,29.30
2023-05-04T07:00:24.704Z,29.36
2023-05-04T07:02:55.669Z,29.42
2023-05-04T07:05:26.700Z,29.48
2023-05-04T07:07:59.250Z,29.52
2023-05-04T07:10:31.892Z,29.59
2023-05-04T07:13:02.347Z,29.64
2023-05-04T07:15:34.156Z,29.70
2023-05-04T07:18:04.801Z,29.74
2023-05-04T07:20:35.363Z,29.81
2023-05-04T07:23:05.658Z,29.87
2023-05-04T07:25:38.067Z,29.93
2023-05-04T07:28:08.501Z,29.98
2023-05-04T07:30:39.234Z,30.04
2023-05-04T07:33:09.485Z,30.10
2023-05-04T07:35:39.480Z,30.16
2023-05-04T07:38:09.462Z,30.21
2023-05-04T07:40:42.299Z,30.27
2023-05-04T07:43:12.046Z,30.32
2023-05-04T07:45:42.551Z,30.36
2023-05-04T07:48:12.649Z,30.41
2023-05-04T07:50:43.738Z,30.45
2023-05-04T07:53:14.318Z,30.49
2023-05-04T07:55:46.064Z,30.54
2023-05-04T07:58:17.148Z,30.58
2023-05-04T08:00:47.509Z,30.63
2023-05-04T08:03:18.207Z,30.69
2023-05-04T08:05:47.975Z,30.74
2023-05-04T08:08:18.706Z,30.80
2023-05-04T08:10:50.173Z,30.88
2023-05-04T08:13:20.692Z,30.93
2023-05-04T08:15:51.727Z,30.99
2023-05-04T08:18:21.580Z,31.03
2023-05-04T08:20:51.827Z,31.07
2023-05-04T08:23:22.107Z,31.13
2023-05-04T08:25:54.687Z,31.19
2023-05-04T08:28:25.201Z,31.22
2023-05-04T08:30:55.885Z,31.26
2023-05-04T08:33:26.672Z,31.31
2023-05-04T08:35:57.326Z,31.33
2023-05-04T08:38:28.226Z,31.37
2023-05-04T08:40:59.938Z,31.41
2023-05-04T08:43:31.467Z,31.43
2023-05-04T08:46:02.181Z,31.45
2023-05-04T08:48:35.104Z,31.48
2023-05-04T08:51:06.682Z,31.51
2023-05-04T08:53:43.110Z,31.53
2023-05-04T08:56:18.084Z,31.55
2023-05-04T08:58:52.800Z,31.58
2023-05-04T09:01:24.103Z,31.61
2023-05-04T09:03:54.832Z,31.62
2023-05-04T09:06:26.399Z,31.64
2023-05-04T09:08:56.590Z,31.66
2023-05-04T09:11:29.785Z,31.67
2023-05-04T09:14:00.186Z,31.69
2023-05-04T09:16:38.122Z,31.71
2023-05-04T09:19:20.753Z,31.72
2023-05-04T09:21:54.741Z,31.72
2023-05-04T09:24:32.335Z,31.74
2023-05-04T09:27:14.427Z,31.75
2023-05-04T09:29:45.431Z,31.77
2023-05-04T09:32:16.465Z,31.77
2023-05-04T09:34:53.772Z,31.78
2023-05-04T09:37:25.004Z,31.77
2023-05-04T09:40:01.201Z,31.79
2023-05-04T09:42:34.189Z,31.80
2023-05-04T09:45:06.942Z,31.81
2023-05-04T09:47:39.918Z,31.81
2023-05-04T09:50:22.882Z,31.83
2023-05-04T09:52:53.772Z,31.82
2023-05-04T09:55:28.883Z,31.84
2023-05-04T09:58:03.403Z,31.86
2023-05-04T10:00:34.090Z,31.90
2023-05-04T10:03:08.839Z,31.94
2023-05-04T10:05:41.803Z,31.96
2023-05-04T10:08:11.821Z,31.98
2023-05-04T10:10:43.689Z,32.00
2023-05-04T10:13:16.077Z,32.03
2023-05-04T10:16:05.049Z,32.04
2023-05-04T10:18:55.756Z,32.05
2023-05-04T10:21:37.068Z,32.05
2023-05-04T10:24:49.438Z,32.06
2023-05-04T10:27:39.892Z,32.06
2023-05-04T10:30:17.520Z,32.07
2023-05-04T10:32:48.552Z,32.08
2023-05-04T10:35:22.349Z,32.09
2023-05-04T10:37:57.027Z,32.11
2023-05-04T10:40:42.428Z,32.11
2023-05-04T10:43:23.448Z,32.12
2023-05-04T10:45:58.025Z,32.13
2023-05-04T10:48:38.023Z,32.15
2023-05-04T10:51:18.889Z,32.14
2023-05-04T10:53:49.875Z,32.15
2023-05-04T10:56:27.825Z,32.18
2023-05-04T10:58:58.504Z,32.18
2023-05-04T11:01:31.223Z,32.20
2023-05-04T11:04:03.243Z,32.22
2023-05-04T11:06:33.777Z,32.22
2023-05-04T11:09:11.237Z,32.23
2023-05-04T11:11:41.303Z,32.24
2023-05-04T11:14:13.518Z,32.25
2023-05-04T11:16:45.981Z,32.27
2023-05-04T11:19:16.163Z,32.29
2023-05-04T11:21:46.639Z,32.30
2023-05-04T11:24:17.179Z,32.31
2023-05-04T11:26:51.942Z,32.32
2023-05-04T11:29:22.358Z,32.34
2023-05-04T11:32:00.444Z,32.36
2023-05-04T11:34:31.721Z,32.36
2023-05-04T11:37:01.682Z,32.38
2023-05-04T11:39:35.302Z,32.40
2023-05-04T11:42:10.211Z,32.41
2023-05-04T11:44:41.280Z,32.41
2023-05-04T11:47:14.098Z,32.44
2023-05-04T11:49:48.018Z,32.45
2023-05-04T11:52:18.493Z,32.45
2023-05-04T11:54:59.504Z,32.47
2023-05-04T11:57:29.225Z,32.48
2023-05-04T11:59:59.784Z,32.49
2023-05-04T12:02:32.219Z,32.50
2023-05-04T12:05:03.697Z,32.52
2023-05-04T12:07:39.747Z,32.52
2023-05-04T12:10:10.677Z,32.52
2023-05-04T12:12:41.276Z,32.52
2023-05-04T12:15:12.537Z,32.53
2023-05-04T12:17:47.142Z,32.53
2023-05-04T12:20:28.643Z,32.54
2023-05-04T12:22:59.839Z,32.54
2023-05-04T12:25:30.434Z,32.54
2023-05-04T12:28:00.698Z,32.56
2023-05-04T12:30:31.221Z,32.57
2023-05-04T12:33:05.888Z,32.57
2023-05-04T12:35:36.307Z,32.58
2023-05-04T12:38:07.360Z,32.57
2023-05-04T12:40:37.707Z,32.58
2023-05-04T12:43:08.371Z,32.58
2023-05-04T12:45:40.332Z,32.59
2023-05-04T12:48:13.620Z,32.59
2023-05-04T12:50:46.207Z,32.58
2023-05-04T12:53:16.885Z,32.58
2023-05-04T12:55:47.454Z,32.57
2023-05-04T12:58:18.160Z,32.57
2023-05-04T13:00:48.689Z,32.57
2023-05-04T13:03:21.153Z,32.57
2023-05-04T13:05:51.568Z,32.54
2023-05-04T13:08:22.123Z,32.55
2023-05-04T13:10:53.681Z,32.53
2023-05-04T13:13:28.831Z,32.53
2023-05-04T13:16:00.191Z,32.52
2023-05-04T13:18:32.919Z,32.51
2023-05-04T13:21:03.972Z,32.51
2023-05-04T13:23:34.726Z,32.49
2023-05-04T13:26:04.827Z,32.48
2023-05-04T13:28:36.263Z,32.48
2023-05-04T13:31:09.229Z,32.47
2023-05-04T13:33:41.827Z,32.47
2023-05-04T13:36:12.693Z,32.47
2023-05-04T13:38:42.851Z,32.45
2023-05-04T13:41:13.342Z,32.44
2023-05-04T13:43:43.452Z,32.44
2023-05-04T13:46:14.011Z,32.44
2023-05-04T13:48:46.121Z,32.43
2023-05-04T13:51:16.289Z,32.41
2023-05-04T13:53:47.043Z,32.40
2023-05-04T13:56:17.118Z,32.39
2023-05-04T13:58:48.122Z,32.37
2023-05-04T14:01:18.652Z,32.36
2023-05-04T14:03:51.148Z,32.36
2023-05-04T14:06:22.285Z,32.35
2023-05-04T14:08:52.204Z,32.33
2023-05-04T14:11:22.974Z,32.32
2023-05-04T14:13:54.106Z,32.31
2023-05-04T14:16:24.985Z,32.31
2023-05-04T14:18:57.224Z,32.29
2023-05-04T14:21:28.348Z,32.28
2023-05-04T14:24:01.117Z,32.27
2023-05-04T14:26:31.684Z,32.26
2023-05-04T14:29:02.236Z,32.23
2023-05-04T14:31:32.985Z,32.22
2023-05-04T14:34:04.832Z,32.21
2023-05-04T14:36:35.350Z,32.20
2023-05-04T14:39:06.109Z,32.19
2023-05-04T14:41:37.659Z,32.17
2023-05-04T14:44:08.475Z,32.16
2023-05-04T14:46:38.648Z,32.15
2023-05-04T14:49:11.251Z,32.13
2023-05-04T14:51:44.508Z,32.12
2023-05-04T14:54:14.158Z,32.10
2023-05-04T14:56:44.966Z,32.09
2023-05-04T14:59:17.427Z,32.07
2023-05-04T15:01:50.798Z,32.06
2023-05-04T15:04:23.358Z,32.06
2023-05-04T15:06:53.754Z,32.02
2023-05-04T15:09:24.933Z,32.01
2023-05-04T15:11:56.111Z,32.00
2023-05-04T15:14:26.940Z,31.97
2023-05-04T15:16:57.175Z,31.95
2023-05-04T15:19:29.745Z,31.94
2023-05-04T15:21:59.554Z,31.91
2023-05-04T15:24:29.762Z,31.90
2023-05-04T15:27:00.008Z,31.88
2023-05-04T15:29:30.667Z,31.86
2023-05-04T15:32:01.328Z,31.85
2023-05-04T15:34:33.147Z,31.83
2023-05-04T15:37:03.419Z,31.80
2023-05-04T15:39:34.481Z,31.78
2023-05-04T15:42:04.943Z,31.75
2023-05-04T15:44:35.640Z,31.73
2023-05-04T15:47:09.242Z,31.71
2023-05-04T15:49:41.299Z,31.70
2023-05-04T15:52:12.131Z,31.66
2023-05-04T15:54:42.731Z,31.65
2023-05-04T15:57:13.217Z,31.63
2023-05-04T15:59:43.711Z,31.61
2023-05-04T16:02:14.721Z,31.59
2023-05-04T16:04:46.580Z,31.58
2023-05-04T16:07:17.172Z,31.55
2023-05-04T16:09:47.721Z,31.52
2023-05-04T16:12:21.312Z,31.50
2023-05-04T16:14:51.621Z,31.49
2023-05-04T16:17:22.326Z,31.47
2023-05-04T16:19:54.894Z,31.46
2023-05-04T16:22:26.414Z,31.43
2023-05-04T16:24:56.972Z,31.41
2023-05-04T16:27:29.009Z,31.40
2023-05-04T16:29:59.641Z,31.38
2023-05-04T16:32:30.225Z,31.36
2023-05-04T16:35:02.697Z,31.34
2023-05-04T16:37:33.366Z,31.32
2023-05-04T16:40:14.531Z,31.31
2023-05-04T16:42:46.591Z,31.29
2023-05-04T16:45:16.647Z,31.26
2023-05-04T16:47:47.644Z,31.26
2023-05-04T16:50:20.908Z,31.25
2023-05-04T16:52:51.385Z,31.23
2023-05-04T16:55:21.963Z,31.21
2023-05-04T16:57:52.858Z,31.19
2023-05-04T17:00:23.698Z,31.19
2023-05-04T17:02:54.429Z,31.17
2023-05-04T17:05:26.841Z,31.16
2023-05-04T17:07:57.164Z,31.15
2023-05-04T17:10:27.550Z,31.13
2023-05-04T17:12:59.224Z,31.12
2023-05-04T17:15:30.658Z,31.10
2023-05-04T17:18:01.049Z,31.10
2023-05-04T17:20:33.462Z,31.08
2023-05-04T17:23:03.890Z,31.07
2023-05-04T17:25:34.735Z,31.07
2023-05-04T17:28:05.010Z,31.05
2023-05-04T17:30:36.154Z,31.03
2023-05-04T17:33:07.010Z,31.03
2023-05-04T17:35:39.355Z,31.02
2023-05-04T17:38:09.545Z,31.01
2023-05-04T17:40:39.997Z,30.99
2023-05-04T17:43:10.641Z,30.98
2023-05-04T17:45:41.026Z,30.97
2023-05-04T17:48:11.476Z,30.96
2023-05-04T17:50:45.978Z,30.95
2023-05-04T17:53:15.889Z,30.93
2023-05-04T17:55:46.333Z,30.92
2023-05-04T17:58:19.218Z,30.91
2023-05-04T18:00:52.004Z,30.89
2023-05-04T18:03:23.546Z,30.88
2023-05-04T18:05:54.726Z,30.87
2023-05-04T18:08:25.205Z,30.86
2023-05-04T18:10:55.247Z,30.86
2023-05-04T18:13:25.840Z,30.84
2023-05-04T18:15:56.795Z,30.84
2023-05-04T18:18:27.244Z,30.83
2023-05-04T18:21:01.228Z,30.82
2023-05-04T18:23:31.769Z,30.81
2023-05-04T18:26:02.378Z,30.80
2023-05-04T18:28:33.572Z,30.79
2023-05-04T18:31:03.994Z,30.79
2023-05-04T18:33:35.291Z,30.79
2023-05-04T18:36:08.328Z,30.78
2023-05-04T18:38:38.357Z,30.77
2023-05-04T18:41:09.154Z,30.77
2023-05-04T18:43:39.593Z,30.75
2023-05-04T18:46:10.589Z,30.74
2023-05-04T18:48:40.381Z,30.73
2023-05-04T18:51:13.745Z,30.74
2023-05-04T18:53:44.352Z,30.71
2023-05-04T18:56:14.616Z,30.72
2023-05-04T18:58:44.529Z,30.71
2023-05-04T19:01:15.319Z,30.70
2023-05-04T19:03:47.595Z,30.70
2023-05-04T19:06:19.323Z,30.69
2023-05-04T19:08:50.134Z,30.69
2023-05-04T19:11:20.762Z,30.68
2023-05-04T19:13:51.470Z,30.66
2023-05-04T19:16:22.103Z,30.64
2023-05-04T19:18:53.008Z,30.64
2023-05-04T19:21:25.218Z,30.64
2023-05-04T19:23:55.715Z,30.62
2023-05-04T19:26:26.476Z,30.61
2023-05-04T19:28:57.066Z,30.61
2023-05-04T19:31:27.709Z,30.60
2023-05-04T19:33:58.126Z,30.58
2023-05-04T19:36:31.013Z,30.58
2023-05-04T19:39:01.152Z,30.56
2023-05-04T19:41:31.836Z,30.56
2023-05-04T19:44:01.990Z,30.55
2023-05-04T19:46:32.484Z,30.54
2023-05-04T19:49:03.503Z,30.54
2023-05-04T19:51:36.712Z,30.53
2023-05-04T19:54:08.263Z,30.51
2023-05-04T19:56:39.625Z,30.50
2023-05-04T19:59:10.339Z,30.49
2023-05-04T20:01:41.018Z,30.49
2023-05-04T20:04:11.047Z,30.48
2023-05-04T20:06:43.291Z,30.47
2023-05-04T20:09:13.935Z,30.46
2023-05-04T20:11:44.833Z,30.45
2023-05-04T20:14:15.735Z,30.43
2023-05-04T20:16:46.501Z,30.43
2023-05-04T20:19:17.572Z,30.42
2023-05-04T20:21:49.085Z,30.40
2023-05-04T20:24:19.560Z,30.39
2023-05-04T20:26:50.216Z,30.38
2023-05-04T20:29:21.530Z,30.37
2023-05-04T20:31:51.636Z,30.37
2023-05-04T20:34:22.130Z,30.36
2023-05-04T20:36:54.794Z,30.36
2023-05-04T20:39:25.842Z,30.34
2023-05-04T20:41:56.508Z,30.35
2023-05-04T20:44:28.388Z,30.34
2023-05-04T20:46:58.949Z,30.33
2023-05-04T20:49:30.057Z,30.33
2023-05-04T20:52:02.324Z,30.32
2023-05-04T20:54:32.952Z,30.32
2023-05-04T20:57:03.976Z,30.31
2023-05-04T20:59:34.930Z,30.31
2023-05-04T21:02:04.890Z,30.31
2023-05-04T21:04:34.978Z,30.29
2023-05-04T21:07:07.486Z,30.29
2023-05-04T21:09:37.935Z,30.28
2023-05-04T21:12:08.506Z,30.26
2023-05-04T21:14:39.601Z,30.27
2023-05-04T21:17:10.178Z,30.26
2023-05-04T21:19:39.976Z,30.26
2023-05-04T21:22:12.649Z,30.24
2023-05-04T21:24:43.368Z,30.24
2023-05-04T21:27:13.819Z,30.23
2023-05-04T21:29:44.314Z,30.23
2023-05-04T21:32:14.724Z,30.21
2023-05-04T21:34:45.111Z,30.21
2023-05-04T21:37:17.099Z,30.19
2023-05-04T21:39:47.818Z,30.17
2023-05-04T21:42:18.327Z,30.17
2023-05-04T21:44:48.476Z,30.15
2023-05-04T21:47:18.972Z,30.14
2023-05-04T21:49:48.882Z,30.13
2023-05-04T21:52:21.431Z,30.12
2023-05-04T21:54:51.920Z,30.11
2023-05-04T21:57:22.054Z,30.11
2023-05-04T21:59:52.482Z,30.10
2023-05-04T22:02:22.945Z,30.10
2023-05-04T22:04:53.143Z,30.10
2023-05-04T22:07:25.282Z,30.09
2023-05-04T22:09:55.669Z,30.07
2023-05-04T22:12:25.532Z,30.07
2023-05-04T22:14:56.094Z,30.06
2023-05-04T22:17:27.454Z,30.05
2023-05-04T22:19:58.264Z,30.04
2023-05-04T22:22:30.064Z,30.03
2023-05-04T22:25:00.390Z,30.01
2023-05-04T22:27:30.714Z,30.00
2023-05-04T22:30:01.127Z,29.98
2023-05-04T22:32:31.129Z,29.97
2023-05-04T22:35:02.095Z,29.97
2023-05-04T22:37:34.636Z,29.95
2023-05-04T22:40:06.628Z,29.95
2023-05-04T22:42:37.184Z,29.93
2023-05-04T22:45:08.881Z,29.93
2023-05-04T22:47:39.436Z,29.93
2023-05-04T22:50:11.609Z,29.92
2023-05-04T22:52:43.848Z,29.91
2023-05-04T22:55:13.934Z,29.90
2023-05-04T22:57:44.444Z,29.88
2023-05-04T23:00:16.696Z,29.85
2023-05-04T23:02:47.471Z,29.83
2023-05-04T23:05:17.395Z,29.81
2023-05-04T23:07:49.880Z,29.80
2023-05-04T23:10:20.269Z,29.78
2023-05-04T23:12:50.797Z,29.77
2023-05-04T23:15:20.841Z,29.75
2023-05-04T23:17:51.342Z,29.75
2023-05-04T23:20:21.937Z,29.74
2023-05-04T23:22:53.648Z,29.73
2023-05-04T23:25:24.434Z,29.72
2023-05-04T23:27:54.810Z,29.71
2023-05-04T23:30:24.923Z,29.69
2023-05-04T23:32:55.671Z,29.67
2023-05-04T23:35:27.261Z,29.66
2023-05-04T23:37:59.662Z,29.64
2023-05-04T23:40:29.779Z,29.63
2023-05-04T23:43:00.196Z,29.62
2023-05-04T23:45:30.762Z,29.61
2023-05-04T23:48:01.177Z,29.61
2023-05-04T23:50:31.660Z,29.61
2023-05-04T23:53:04.302Z,29.60
2023-05-04T23:55:34.525Z,29.60
2023-05-04T23:58:05.261Z,29.60
